My Meet Scores
Shannon Diete, Chicago Park Dist - MyMeetScores.com
Top100 | Top Teams | Upcoming Meets | Completed Meets | Latest | Add Scores | Help| Support | Bookmark and Share

Shannon Diete, Chicago Park Dist
Personal Bests
LevelVault BarsBeamFloorAA
39.3259.300 8.3009.30036.225
48.5509.100 9.5508.95035.900
69.1508.350 9.6009.50036.125
79.6259.450 9.3759.62537.375
Meet Scores
Date Meet Team Session Level Division Vault Bars Beam Floor AA
2020-02-29 Yurchenko Invitational Chicago Park Dist 5 7 Level 7 Junior B 9.125 3 9.450 2 9.175 1 9.625 3 37.375 1
2020-02-14 Midwest Open Chicago Park Dist 01 7 Junior A 9.050 1T 8.600 18 9.300 4T 9.525 3 36.475 7T
2020-01-30 Circle of Stars Chicago Park Dist C06 7 Jr B 8.850 7 8.450 8 9.375 1 9.500 2 36.175 4
2020-01-10 St Jude Benefit Meet Chicago Park Dist 4B 7 Jr B 8.750 13 9.050 7T 9.050 5 9.425 4T 36.275 4
2019-12-20 Aspire Classic - 2019 Chicago Park Dist 3B 7 Younger 8.850 6T 9.125 8 8.950 13 9.375 7 36.300 7
2019-04-26 Level 7/8 Region 5 Regionals Chicago Park Dist 8A 7 JRB1 9.625 4T 8.300 26 9.075 23 9.475 8T 36.475 24
2019-03-29 Illinois Level 7 & 8 State Meet Chicago Park Dist 6 7 Jr B 9.000 15T 8.200 25 8.800 22 9.525 6T 35.525 24
2019-02-08 IGI Chicago Style 2019 Chicago Park Dist 4 7 411 Rush L7 A 8.800 10 8.650 17 8.125 19 8.925 15 34.500 16
2019-01-25 UGA Invitational Chicago Park Dist A01 7 Jr A 8.825 5T 7.850 11 9.225 6 9.300 5 35.200 7
2019-01-11 St Jude Benefit Meet Chicago Park Dist 4B 7 Jr A 8.925 3 8.950 13 8.900 9T 9.400 11T 36.175 8
2018-02-16 Big Classic Chicago Park Dist 3A 6 Junior A 9.025 2T 8.100 8 9.600 1 9.400 1 36.125 4
2018-02-08 Hal's Harley-Davidson Invite Womens Chicago Park Dist O11 6 10 yrs un 8.500 3 8.050 6T 9.000 2 9.500 1 35.050 3
2018-01-26 King Arthur Invitational Chicago Park Dist 1 6 JR 8.900 6 8.200 11T 9.225 4T 9.475 2 35.800 6
2017-12-15 2017 Aspire Classic Chicago Park Dist 1 6 Jr A 9.150 6 8.350 13 8.775 9 9.225 3T 35.500 7
2017-12-01 Ultimate Wish Classic Chicago Park Dist 1 6 JR 9.000 8 8.050 11 8.925 6 9.350 5 35.325 10T
2017-02-24 Kinetic Classic Chicago Park Dist 5,6 4 All Ages 8.200 106T 9.100 49 9.100 64T 8.750 84T 35.150 75T
2016-12-16 2016 Aspire Classic Chicago Park Dist 7 4 Younger 8.500 17 8.900 7 9.550 6T 8.950 12 35.900 9
2016-12-02 Ultimate Wish Classic Chicago Park Dist 14 4 Child 8.550 4 8.300 6 9.125 7 8.650 6T 34.625 5
2016-03-04 2016 Illinois Level 3 State Championships Chicago Park Dist 3 Child-E 9.325 15 9.300 6 8.300 14 9.300 4 36.225 8
2015-12-04 2015 Ultimate Wish Classic Chicago Park Dist 10B 3 All 8.700 45 8.500 62 7.650 71 9.075 34 33.925 51
Get your scores on
a t-shirt, pin, or hoodie

www.lazysuits.com